Urb Verdemar, Puerto Rico
Current Conditions -  °F | °C
As of 9:15 AM on Friday 31 Oct 2014 (Local Time) from TJNR Reporting Station
Broken Clouds Broken Clouds  
Wind Chill: 81°   Ceiling: 3000
Heat Index: 87°   Visibility: 10mi
Dew Point: 76°   Wind: 9mph
Humidity: 85%   Direction: 160°SSE
Pressure: 29.93"   Gusts: NA
Location:  18.1684°N, 65.7486°W
Report Text: TJNR 311315Z AUTO 16008KT 10SM FEW012 SCT025 BKN030 27/24 A2993 RMK AO2 T02720244 $
Loading
Personal Weather Stations






























Interactive Weather Map
Tropical Storm Tracking
New forecast layout! Learn more

10-Day Weather Forecast

Advertisements
Track Severe Weather on mobile